map of KVUJ home
KVUJ - Airport
Location
City:  Albemarle, North Carolina, United States
Name:Stanly County Airport
ICAO:KVUJ
FAA LID:VUJ

Details
Type:Airport (Airfield)
Use:Public/Civil
Latitude:3525'00"N (35.416695)
Longitude:8009'03"W (-80.150795)
Datum:WGS 1984
Elevation:608 ft (185 m)
Variation:8.28W (WMM2015 magnetic declination)
-0.05 annual change
Runways:2
Longest:5500 × 100 ft (1676 × 30.5 m), paved

Time
Time Zone:UTC-5 (DST-4)
Local Time:

Weather
METAR:KVUJ 160315Z AUTO 00000KT 10SM CLR 17/17 A3017 RMK AO2 T01730172

Related Locations
Nearby:
Farthest:YAUG: 11572 mi / 18623 km
Augusta [Augusta Airport], WA, AU

Find:

   beyond  
but within

Other Information
Maps:
NOTAMs:
Links:
Sources:

  
  • flag of United States
  • flag of North Carolina
  

Airport Diagram

Airport diagram for KVUJ

Airport diagram PDF

Sectional Chart

Flight Planning
at skyvector.com

Satellite Image

Google Maps Satellite view

 

Copyright © 2004-2018 Karl L. Swartz. All rights reserved.
The Great Circle Mapper name and logo are trademarks of the Great Circle Mapper.
All other trademarks mentioned herein belong to their respective owners.
Please see credits for attibutions and further copyright information.

  Follow gcmap on Facebook Follow gcmap on Twitter Follow gcmap on Google+ GCmap on LinkedIn

hCard Microformat

Geo Microformat